sensor_id;sensor_type;location;lat;lon;timestamp;pressure;altitude;pressure_sealevel;temperature;humidity
41632;BME280;37452;51.938;4.624;2023-02-14T00:02:15;79557.59;;;-142.75;100.00
41632;BME280;37452;51.938;4.624;2023-02-14T00:04:40;79598.94;;;-142.75;100.00
41632;BME280;37452;51.938;4.624;2023-02-14T00:07:07;79612.75;;;-142.75;100.00
41632;BME280;37452;51.938;4.624;2023-02-14T00:09:33;79602.88;;;-142.75;100.00
41632;BME280;37452;51.938;4.624;2023-02-14T00:11:58;79579.25;;;-142.75;100.00
41632;BME280;37452;51.938;4.624;2023-02-14T00:14:23;79551.69;;;-142.75;100.00
41632;BME280;37452;51.938;4.624;2023-02-14T00:17:07;79533.94;;;-142.75;100.00
41632;BME280;37452;51.938;4.624;2023-02-14T00:19:32;79524.09;;;-142.75;100.00
41632;BME280;37452;51.938;4.624;2023-02-14T00:22:00;79528.03;;;-142.75;100.00
41632;BME280;37452;51.938;4.624;2023-02-14T00:24:25;79498.47;;;-142.75;100.00
41632;BME280;37452;51.938;4.624;2023-02-14T00:26:51;79480.75;;;-142.75;100.00
41632;BME280;37452;51.938;4.624;2023-02-14T00:29:20;79474.84;;;-142.75;100.00
41632;BME280;37452;51.938;4.624;2023-02-14T00:31:46;79465.00;;;-142.75;100.00
41632;BME280;37452;51.938;4.624;2023-02-14T00:34:11;79459.09;;;-142.75;100.00
41632;BME280;37452;51.938;4.624;2023-02-14T00:36:37;79449.25;;;-142.75;100.00
41632;BME280;37452;51.938;4.624;2023-02-14T00:39:06;79441.34;;;-142.75;100.00
41632;BME280;37452;51.938;4.624;2023-02-14T00:41:32;79457.13;;;-142.75;100.00
41632;BME280;37452;51.938;4.624;2023-02-14T00:43:57;79476.81;;;-142.75;100.00
41632;BME280;37452;51.938;4.624;2023-02-14T00:46:24;79470.91;;;-142.75;100.00
41632;BME280;37452;51.938;4.624;2023-02-14T00:48:50;79486.66;;;-142.75;100.00
41632;BME280;37452;51.938;4.624;2023-02-14T00:51:16;79506.38;;;-142.75;100.00
41632;BME280;37452;51.938;4.624;2023-02-14T00:53:43;79494.53;;;-142.75;100.00
41632;BME280;37452;51.938;4.624;2023-02-14T00:56:08;79500.47;;;-142.75;100.00
41632;BME280;37452;51.938;4.624;2023-02-14T00:58:33;79498.47;;;-142.75;100.00
41632;BME280;37452;51.938;4.624;2023-02-14T01:00:58;79498.47;;;-142.75;100.00
41632;BME280;37452;51.938;4.624;2023-02-14T01:03:25;79504.41;;;-142.75;100.00
41632;BME280;37452;51.938;4.624;2023-02-14T01:05:51;79516.22;;;-142.75;100.00
41632;BME280;37452;51.938;4.624;2023-02-14T01:08:16;79528.03;;;-142.75;100.00
41632;BME280;37452;51.938;4.624;2023-02-14T01:10:42;79537.88;;;-142.75;100.00
41632;BME280;37452;51.938;4.624;2023-02-14T01:13:08;79524.09;;;-142.75;100.00
41632;BME280;37452;51.938;4.624;2023-02-14T01:15:38;79537.88;;;-142.75;100.00
41632;BME280;37452;51.938;4.624;2023-02-14T01:18:03;79563.50;;;-142.75;100.00
41632;BME280;37452;51.938;4.624;2023-02-14T01:20:29;79571.38;;;-142.75;100.00
41632;BME280;37452;51.938;4.624;2023-02-14T01:22:54;79579.25;;;-142.75;100.00
41632;BME280;37452;51.938;4.624;2023-02-14T01:25:19;79569.41;;;-142.75;100.00
41632;BME280;37452;51.938;4.624;2023-02-14T01:27:44;79581.22;;;-142.75;100.00
41632;BME280;37452;51.938;4.624;2023-02-14T01:30:10;79587.13;;;-142.75;100.00
41632;BME280;37452;51.938;4.624;2023-02-14T01:32:35;79563.50;;;-142.75;100.00
41632;BME280;37452;51.938;4.624;2023-02-14T01:35:00;79539.84;;;-142.75;100.00
41632;BME280;37452;51.938;4.624;2023-02-14T01:37:26;79539.84;;;-142.75;100.00
41632;BME280;37452;51.938;4.624;2023-02-14T01:39:52;79530.00;;;-142.75;100.00
41632;BME280;37452;51.938;4.624;2023-02-14T01:42:17;79514.25;;;-142.75;100.00
41632;BME280;37452;51.938;4.624;2023-02-14T01:47:11;79535.91;;;-142.75;100.00
41632;BME280;37452;51.938;4.624;2023-02-14T01:49:40;79518.19;;;-142.75;100.00
41632;BME280;37452;51.938;4.624;2023-02-14T01:52:13;79512.28;;;-142.75;100.00
41632;BME280;37452;51.938;4.624;2023-02-14T01:54:45;79547.72;;;-142.75;100.00
41632;BME280;37452;51.938;4.624;2023-02-14T01:57:14;79528.03;;;-142.75;100.00
41632;BME280;37452;51.938;4.624;2023-02-14T01:59:47;79516.22;;;-142.75;100.00
41632;BME280;37452;51.938;4.624;2023-02-14T02:02:15;79520.16;;;-142.75;100.00
41632;BME280;37452;51.938;4.624;2023-02-14T02:04:47;79512.28;;;-142.75;100.00
41632;BME280;37452;51.938;4.624;2023-02-14T02:07:13;79506.38;;;-142.75;100.00
41632;BME280;37452;51.938;4.624;2023-02-14T02:09:46;79522.13;;;-142.75;100.00
41632;BME280;37452;51.938;4.624;2023-02-14T02:12:13;79539.84;;;-142.75;100.00
41632;BME280;37452;51.938;4.624;2023-02-14T02:14:38;79541.81;;;-142.75;100.00
41632;BME280;37452;51.938;4.624;2023-02-14T02:42:52;79581.22;;;-142.75;100.00
41632;BME280;37452;51.938;4.624;2023-02-14T02:45:35;79587.13;;;-142.75;100.00
41632;BME280;37452;51.938;4.624;2023-02-14T02:48:31;79602.88;;;-142.75;100.00
41632;BME280;37452;51.938;4.624;2023-02-14T02:51:00;79604.88;;;-142.75;100.00
41632;BME280;37452;51.938;4.624;2023-02-14T02:53:53;79589.09;;;-142.75;100.00
41632;BME280;37452;51.938;4.624;2023-02-14T02:56:30;79581.22;;;-142.75;100.00
41632;BME280;37452;51.938;4.624;2023-02-14T02:59:27;79583.19;;;-142.75;100.00
41632;BME280;37452;51.938;4.624;2023-02-14T03:04:33;79579.25;;;-142.75;100.00
41632;BME280;37452;51.938;4.624;2023-02-14T03:10:07;79579.25;;;-142.75;100.00
41632;BME280;37452;51.938;4.624;2023-02-14T03:15:46;79565.47;;;-142.75;100.00
41632;BME280;37452;51.938;4.624;2023-02-14T03:18:31;79573.34;;;-142.75;100.00
41632;BME280;37452;51.938;4.624;2023-02-14T03:21:33;79579.25;;;-142.75;100.00
41632;BME280;37452;51.938;4.624;2023-02-14T03:24:10;79567.44;;;-142.75;100.00
41632;BME280;37452;51.938;4.624;2023-02-14T03:26:54;79593.03;;;-142.75;100.00
41632;BME280;37452;51.938;4.624;2023-02-14T03:35:29;79614.72;;;-142.75;100.00
41632;BME280;37452;51.938;4.624;2023-02-14T03:38:06;79606.84;;;-142.75;100.00
41632;BME280;37452;51.938;4.624;2023-02-14T03:40:39;79614.72;;;-142.75;100.00
41632;BME280;37452;51.938;4.624;2023-02-14T03:43:13;79626.53;;;-142.75;100.00
41632;BME280;37452;51.938;4.624;2023-02-14T03:45:48;79626.53;;;-142.75;100.00
41632;BME280;37452;51.938;4.624;2023-02-14T03:48:17;79626.53;;;-142.75;100.00
41632;BME280;37452;51.938;4.624;2023-02-14T03:50:46;79598.94;;;-142.75;100.00
41632;BME280;37452;51.938;4.624;2023-02-14T03:53:17;79587.13;;;-142.75;100.00
41632;BME280;37452;51.938;4.624;2023-02-14T03:58:56;79567.44;;;-142.75;100.00
41632;BME280;37452;51.938;4.624;2023-02-14T04:01:45;79587.13;;;-142.75;100.00
41632;BME280;37452;51.938;4.624;2023-02-14T04:04:13;79587.13;;;-142.75;100.00
41632;BME280;37452;51.938;4.624;2023-02-14T04:06:40;79583.19;;;-142.75;100.00
41632;BME280;37452;51.938;4.624;2023-02-14T04:09:05;79604.88;;;-142.75;100.00
41632;BME280;37452;51.938;4.624;2023-02-14T04:11:32;79616.69;;;-142.75;100.00
41632;BME280;37452;51.938;4.624;2023-02-14T04:13:59;79620.63;;;-142.75;100.00
41632;BME280;37452;51.938;4.624;2023-02-14T04:16:24;79626.53;;;-142.75;100.00
41632;BME280;37452;51.938;4.624;2023-02-14T04:18:50;79636.38;;;-142.75;100.00
41632;BME280;37452;51.938;4.624;2023-02-14T04:21:34;79626.53;;;-142.75;100.00
41632;BME280;37452;51.938;4.624;2023-02-14T04:23:59;79618.66;;;-142.75;100.00
41632;BME280;37452;51.938;4.624;2023-02-14T04:26:24;79630.47;;;-142.75;100.00
41632;BME280;37452;51.938;4.624;2023-02-14T04:28:49;79648.19;;;-142.75;100.00
41632;BME280;37452;51.938;4.624;2023-02-14T04:31:15;79652.13;;;-142.75;100.00
41632;BME280;37452;51.938;4.624;2023-02-14T04:33:41;79642.28;;;-142.75;100.00
41632;BME280;37452;51.938;4.624;2023-02-14T04:36:08;79646.22;;;-142.75;100.00
41632;BME280;37452;51.938;4.624;2023-02-14T04:38:33;79669.88;;;-142.75;100.00
41632;BME280;37452;51.938;4.624;2023-02-14T04:40:59;79669.88;;;-142.75;100.00
41632;BME280;37452;51.938;4.624;2023-02-14T04:43:24;79679.72;;;-142.75;100.00
41632;BME280;37452;51.938;4.624;2023-02-14T04:45:49;79669.88;;;-142.75;100.00
41632;BME280;37452;51.938;4.624;2023-02-14T04:48:14;79656.09;;;-142.75;100.00
41632;BME280;37452;51.938;4.624;2023-02-14T04:50:40;79660.03;;;-142.75;100.00
41632;BME280;37452;51.938;4.624;2023-02-14T04:53:05;79646.22;;;-142.75;100.00
41632;BME280;37452;51.938;4.624;2023-02-14T04:55:30;79654.13;;;-142.75;100.00
41632;BME280;37452;51.938;4.624;2023-02-14T04:57:55;79691.53;;;-142.75;100.00
41632;BME280;37452;51.938;4.624;2023-02-14T05:00:21;79689.56;;;-142.75;100.00
41632;BME280;37452;51.938;4.624;2023-02-14T05:02:46;79697.44;;;-142.75;100.00
41632;BME280;37452;51.938;4.624;2023-02-14T05:05:11;79697.44;;;-142.75;100.00
41632;BME280;37452;51.938;4.624;2023-02-14T05:07:37;79734.88;;;-142.75;100.00
41632;BME280;37452;51.938;4.624;2023-02-14T05:10:02;79744.72;;;-142.75;100.00
41632;BME280;37452;51.938;4.624;2023-02-14T05:12:28;79752.63;;;-142.75;100.00
41632;BME280;37452;51.938;4.624;2023-02-14T05:14:53;79750.66;;;-142.75;100.00
41632;BME280;37452;51.938;4.624;2023-02-14T05:17:20;79736.84;;;-142.75;100.00
41632;BME280;37452;51.938;4.624;2023-02-14T05:19:45;79752.63;;;-142.75;100.00
41632;BME280;37452;51.938;4.624;2023-02-14T05:22:10;79738.81;;;-142.75;100.00
41632;BME280;37452;51.938;4.624;2023-02-14T05:24:35;79740.78;;;-142.75;100.00
41632;BME280;37452;51.938;4.624;2023-02-14T05:27:01;79740.78;;;-142.75;100.00
41632;BME280;37452;51.938;4.624;2023-02-14T05:29:26;79744.72;;;-142.75;100.00
41632;BME280;37452;51.938;4.624;2023-02-14T05:31:52;79754.59;;;-142.75;100.00
41632;BME280;37452;51.938;4.624;2023-02-14T05:34:17;79744.72;;;-142.75;100.00
41632;BME280;37452;51.938;4.624;2023-02-14T05:36:43;79752.63;;;-142.75;100.00
41632;BME280;37452;51.938;4.624;2023-02-14T05:39:08;79734.88;;;-142.75;100.00
41632;BME280;37452;51.938;4.624;2023-02-14T05:41:33;79762.47;;;-142.75;100.00
41632;BME280;37452;51.938;4.624;2023-02-14T05:43:58;79754.59;;;-142.75;100.00
41632;BME280;37452;51.938;4.624;2023-02-14T05:46:24;79762.47;;;-142.75;100.00
41632;BME280;37452;51.938;4.624;2023-02-14T05:48:49;79748.66;;;-142.75;100.00
41632;BME280;37452;51.938;4.624;2023-02-14T05:51:14;79744.72;;;-142.75;100.00
41632;BME280;37452;51.938;4.624;2023-02-14T05:53:39;79728.97;;;-142.75;100.00
41632;BME280;37452;51.938;4.624;2023-02-14T05:56:05;79748.66;;;-142.75;100.00
41632;BME280;37452;51.938;4.624;2023-02-14T05:58:31;79764.44;;;-142.75;100.00
41632;BME280;37452;51.938;4.624;2023-02-14T06:00:56;79768.38;;;-142.75;100.00
41632;BME280;37452;51.938;4.624;2023-02-14T06:03:22;79760.50;;;-142.75;100.00
41632;BME280;37452;51.938;4.624;2023-02-14T06:05:47;79784.13;;;-142.75;100.00
41632;BME280;37452;51.938;4.624;2023-02-14T06:08:12;79797.94;;;-142.75;100.00
41632;BME280;37452;51.938;4.624;2023-02-14T06:10:38;79815.66;;;-142.75;100.00
41632;BME280;37452;51.938;4.624;2023-02-14T06:13:03;79815.66;;;-142.75;100.00
41632;BME280;37452;51.938;4.624;2023-02-14T06:15:33;79831.41;;;-142.75;100.00
41632;BME280;37452;51.938;4.624;2023-02-14T06:17:59;79823.53;;;-142.75;100.00
41632;BME280;37452;51.938;4.624;2023-02-14T06:20:24;79819.59;;;-142.75;100.00
41632;BME280;37452;51.938;4.624;2023-02-14T06:22:50;79811.72;;;-142.75;100.00
41632;BME280;37452;51.938;4.624;2023-02-14T06:25:16;79803.84;;;-142.75;100.00
41632;BME280;37452;51.938;4.624;2023-02-14T06:27:41;79797.94;;;-142.75;100.00
41632;BME280;37452;51.938;4.624;2023-02-14T06:30:08;79813.69;;;-142.75;100.00
41632;BME280;37452;51.938;4.624;2023-02-14T06:32:33;79815.66;;;-142.75;100.00
41632;BME280;37452;51.938;4.624;2023-02-14T06:34:58;79807.78;;;-142.75;100.00
41632;BME280;37452;51.938;4.624;2023-02-14T06:37:24;79803.84;;;-142.75;100.00
41632;BME280;37452;51.938;4.624;2023-02-14T06:39:49;79788.06;;;-142.75;100.00
41632;BME280;37452;51.938;4.624;2023-02-14T06:42:14;79797.94;;;-142.75;100.00
41632;BME280;37452;51.938;4.624;2023-02-14T06:44:40;79788.06;;;-142.75;100.00
41632;BME280;37452;51.938;4.624;2023-02-14T06:47:05;79780.19;;;-142.75;100.00
41632;BME280;37452;51.938;4.624;2023-02-14T06:49:32;79792.00;;;-142.75;100.00
41632;BME280;37452;51.938;4.624;2023-02-14T06:51:57;79786.09;;;-142.75;100.00
41632;BME280;37452;51.938;4.624;2023-02-14T06:54:22;79784.13;;;-142.75;100.00
41632;BME280;37452;51.938;4.624;2023-02-14T06:56:47;79809.75;;;-142.75;100.00
41632;BME280;37452;51.938;4.624;2023-02-14T06:59:13;79784.13;;;-142.75;100.00
41632;BME280;37452;51.938;4.624;2023-02-14T07:01:38;79780.19;;;-142.75;100.00
41632;BME280;37452;51.938;4.624;2023-02-14T07:04:03;79809.75;;;-142.75;100.00
41632;BME280;37452;51.938;4.624;2023-02-14T07:06:28;79799.91;;;-142.75;100.00
41632;BME280;37452;51.938;4.624;2023-02-14T07:08:54;79788.06;;;-142.75;100.00
41632;BME280;37452;51.938;4.624;2023-02-14T07:11:19;79778.22;;;-142.75;100.00
41632;BME280;37452;51.938;4.624;2023-02-14T07:13:44;79756.56;;;-142.75;100.00
41632;BME280;37452;51.938;4.624;2023-02-14T07:16:10;79752.63;;;-142.75;100.00
41632;BME280;37452;51.938;4.624;2023-02-14T07:18:35;79746.69;;;-142.75;100.00
41632;BME280;37452;51.938;4.624;2023-02-14T07:21:01;79764.44;;;-142.75;100.00
41632;BME280;37452;51.938;4.624;2023-02-14T07:23:26;79754.59;;;-142.75;100.00
41632;BME280;37452;51.938;4.624;2023-02-14T07:25:51;79772.31;;;-142.75;100.00
41632;BME280;37452;51.938;4.624;2023-02-14T07:28:17;79795.94;;;-142.75;100.00
41632;BME280;37452;51.938;4.624;2023-02-14T07:30:42;79782.16;;;-142.75;100.00
41632;BME280;37452;51.938;4.624;2023-02-14T07:33:07;79786.09;;;-142.75;100.00
41632;BME280;37452;51.938;4.624;2023-02-14T07:35:32;79780.19;;;-142.75;100.00
41632;BME280;37452;51.938;4.624;2023-02-14T07:37:59;79784.13;;;-142.75;100.00
41632;BME280;37452;51.938;4.624;2023-02-14T07:40:24;79780.19;;;-142.75;100.00
41632;BME280;37452;51.938;4.624;2023-02-14T07:42:55;79795.94;;;-142.75;100.00
41632;BME280;37452;51.938;4.624;2023-02-14T07:45:21;79780.19;;;-142.75;100.00
41632;BME280;37452;51.938;4.624;2023-02-14T07:47:51;79744.72;;;-142.75;100.00
41632;BME280;37452;51.938;4.624;2023-02-14T07:50:17;79732.91;;;-142.75;100.00
41632;BME280;37452;51.938;4.624;2023-02-14T07:52:43;79701.38;;;-142.75;100.00
41632;BME280;37452;51.938;4.624;2023-02-14T07:55:09;79677.75;;;-142.75;100.00
41632;BME280;37452;51.938;4.624;2023-02-14T07:57:34;79638.34;;;-142.75;100.00
41632;BME280;37452;51.938;4.624;2023-02-14T08:00:00;79600.91;;;-142.75;100.00
41632;BME280;37452;51.938;4.624;2023-02-14T08:02:25;79561.53;;;-142.75;100.00
41632;BME280;37452;51.938;4.624;2023-02-14T08:04:50;79484.69;;;-142.75;100.00
41632;BME280;37452;51.938;4.624;2023-02-14T08:07:15;79441.34;;;-142.75;100.00
41632;BME280;37452;51.938;4.624;2023-02-14T08:09:41;79380.28;;;-142.75;100.00
41632;BME280;37452;51.938;4.624;2023-02-14T08:12:06;79350.75;;;-142.75;100.00
41632;BME280;37452;51.938;4.624;2023-02-14T08:15:10;79394.09;;;-142.75;100.00
41632;BME280;37452;51.938;4.624;2023-02-14T08:17:55;79394.09;;;-142.75;100.00
41632;BME280;37452;51.938;4.624;2023-02-14T08:20:21;79431.50;;;-142.75;100.00
41632;BME280;37452;51.938;4.624;2023-02-14T08:22:46;79400.00;;;-142.75;100.00
41632;BME280;37452;51.938;4.624;2023-02-14T08:25:11;79425.59;;;-142.75;100.00
41632;BME280;37452;51.938;4.624;2023-02-14T08:27:36;79396.06;;;-142.75;100.00
41632;BME280;37452;51.938;4.624;2023-02-14T08:30:02;79419.69;;;-142.75;100.00
41632;BME280;37452;51.938;4.624;2023-02-14T08:32:27;79376.34;;;-142.75;100.00
41632;BME280;37452;51.938;4.624;2023-02-14T08:34:53;79370.44;;;-142.75;100.00
41632;BME280;37452;51.938;4.624;2023-02-14T08:37:18;79336.94;;;-142.75;100.00
41632;BME280;37452;51.938;4.624;2023-02-14T08:39:43;79307.41;;;-142.75;100.00
41632;BME280;37452;51.938;4.624;2023-02-14T08:42:08;79291.66;;;-142.75;100.00
41632;BME280;37452;51.938;4.624;2023-02-14T08:44:34;79285.75;;;-142.75;100.00
41632;BME280;37452;51.938;4.624;2023-02-14T08:46:59;79271.94;;;-142.75;100.00
41632;BME280;37452;51.938;4.624;2023-02-14T08:49:24;79252.25;;;-142.75;100.00
41632;BME280;37452;51.938;4.624;2023-02-14T08:51:49;79195.13;;;-142.75;100.00
41632;BME280;37452;51.938;4.624;2023-02-14T08:54:15;79161.66;;;-142.75;100.00
41632;BME280;37452;51.938;4.624;2023-02-14T08:56:40;79134.06;;;-142.75;100.00
41632;BME280;37452;51.938;4.624;2023-02-14T08:59:05;79153.75;;;-142.75;100.00
41632;BME280;37452;51.938;4.624;2023-02-14T09:01:31;79059.22;;;-142.75;100.00
41632;BME280;37452;51.938;4.624;2023-02-14T09:03:56;78994.22;;;-142.75;100.00
41632;BME280;37452;51.938;4.624;2023-02-14T09:06:22;79008.00;;;-142.75;100.00
41632;BME280;37452;51.938;4.624;2023-02-14T09:08:47;78980.44;;;-142.75;100.00
41632;BME280;37452;51.938;4.624;2023-02-14T09:11:15;78911.50;;;-142.75;100.00
41632;BME280;37452;51.938;4.624;2023-02-14T09:13:42;78931.19;;;-142.75;100.00
41632;BME280;37452;51.938;4.624;2023-02-14T09:16:08;78883.91;;;-142.75;100.00
41632;BME280;37452;51.938;4.624;2023-02-14T09:18:34;78893.78;;;-142.75;100.00
41632;BME280;37452;51.938;4.624;2023-02-14T09:21:00;78915.44;;;-142.75;100.00
41632;BME280;37452;51.938;4.624;2023-02-14T09:23:25;78826.81;;;-142.75;100.00
41632;BME280;37452;51.938;4.624;2023-02-14T09:25:51;78783.47;;;-142.75;100.00
41632;BME280;37452;51.938;4.624;2023-02-14T09:28:16;78748.03;;;-142.75;100.00
41632;BME280;37452;51.938;4.624;2023-02-14T09:30:41;78728.31;;;-142.75;100.00
41632;BME280;37452;51.938;4.624;2023-02-14T09:33:08;78720.44;;;-142.75;100.00
41632;BME280;37452;51.938;4.624;2023-02-14T09:35:33;78704.69;;;-142.75;100.00
41632;BME280;37452;51.938;4.624;2023-02-14T09:37:58;78663.31;;;-142.75;100.00
41632;BME280;37452;51.938;4.624;2023-02-14T09:40:24;78627.88;;;-142.75;100.00
41632;BME280;37452;51.938;4.624;2023-02-14T09:45:26;78659.38;;;-142.75;100.00
41632;BME280;37452;51.938;4.624;2023-02-14T09:48:09;78641.66;;;-142.75;100.00
41632;BME280;37452;51.938;4.624;2023-02-14T09:50:52;78641.66;;;-142.75;100.00
41632;BME280;37452;51.938;4.624;2023-02-14T09:53:35;78618.03;;;-142.75;100.00
41632;BME280;37452;51.938;4.624;2023-02-14T09:56:09;78596.38;;;-142.75;100.00
41632;BME280;37452;51.938;4.624;2023-02-14T09:58:56;78578.63;;;-142.75;100.00
41632;BME280;37452;51.938;4.624;2023-02-14T10:06:58;78509.72;;;-142.75;100.00
41632;BME280;37452;51.938;4.624;2023-02-14T10:12:30;78493.97;;;-142.75;100.00
41632;BME280;37452;51.938;4.624;2023-02-14T10:15:00;78503.81;;;-142.75;100.00
41632;BME280;37452;51.938;4.624;2023-02-14T10:17:43;78505.78;;;-142.75;100.00
41632;BME280;37452;51.938;4.624;2023-02-14T10:22:50;78531.38;;;-142.75;100.00
41632;BME280;37452;51.938;4.624;2023-02-14T10:28:43;78450.63;;;-142.75;100.00
41632;BME280;37452;51.938;4.624;2023-02-14T10:33:38;78371.84;;;-142.75;100.00
41632;BME280;37452;51.938;4.624;2023-02-14T10:44:53;78312.78;;;-142.75;100.00
41632;BME280;37452;51.938;4.624;2023-02-14T10:47:30;78271.41;;;-142.75;100.00
41632;BME280;37452;51.938;4.624;2023-02-14T10:50:26;78204.47;;;-142.75;98.79
41632;BME280;37452;51.938;4.624;2023-02-14T10:53:12;78172.94;;;-142.75;96.85
41632;BME280;37452;51.938;4.624;2023-02-14T10:55:59;78318.69;;;-142.75;95.39
41632;BME280;37452;51.938;4.624;2023-02-14T10:58:28;78322.63;;;-142.75;98.62
41632;BME280;37452;51.938;4.624;2023-02-14T11:01:09;78348.22;;;-142.75;100.00
41632;BME280;37452;51.938;4.624;2023-02-14T11:03:38;78310.81;;;-142.75;100.00
41632;BME280;37452;51.938;4.624;2023-02-14T11:06:03;78204.47;;;-142.75;97.19
41632;BME280;37452;51.938;4.624;2023-02-14T11:08:37;78125.69;;;-142.75;90.89
41632;BME280;37452;51.938;4.624;2023-02-14T11:13:47;78139.47;;;-142.75;91.70
41632;BME280;37452;51.938;4.624;2023-02-14T11:16:38;78155.22;;;-142.75;89.07
41632;BME280;37452;51.938;4.624;2023-02-14T11:21:40;78094.19;;;-142.75;89.29
41632;BME280;37452;51.938;4.624;2023-02-14T11:24:29;77979.97;;;-142.75;85.21
41632;BME280;37452;51.938;4.624;2023-02-14T11:26:58;77905.13;;;-142.75;80.11
41632;BME280;37452;51.938;4.624;2023-02-14T11:29:30;77952.41;;;-142.75;80.54
41632;BME280;37452;51.938;4.624;2023-02-14T11:32:08;77952.41;;;-142.75;81.57
41632;BME280;37452;51.938;4.624;2023-02-14T11:34:37;77818.50;;;-142.75;78.28
41632;BME280;37452;51.938;4.624;2023-02-14T11:37:30;77824.41;;;-142.75;76.22
41632;BME280;37452;51.938;4.624;2023-02-14T11:39:59;77938.63;;;-142.75;78.90
41632;BME280;37452;51.938;4.624;2023-02-14T11:42:43;77964.22;;;-142.75;80.94
41632;BME280;37452;51.938;4.624;2023-02-14T11:48:15;77915.00;;;-142.75;77.92
41632;BME280;37452;51.938;4.624;2023-02-14T11:50:42;77883.47;;;-142.75;78.15
41632;BME280;37452;51.938;4.624;2023-02-14T11:53:10;77865.75;;;-142.75;76.27
41632;BME280;37452;51.938;4.624;2023-02-14T11:55:37;77903.16;;;-142.75;78.45
41632;BME280;37452;51.938;4.624;2023-02-14T11:58:05;77842.13;;;-142.75;77.69
41632;BME280;37452;51.938;4.624;2023-02-14T12:00:31;77873.63;;;-142.75;76.77
41632;BME280;37452;51.938;4.624;2023-02-14T12:02:59;77877.56;;;-142.75;77.25
41632;BME280;37452;51.938;4.624;2023-02-14T12:05:46;77863.78;;;-142.75;79.50
41632;BME280;37452;51.938;4.624;2023-02-14T12:08:13;77869.69;;;-142.75;77.05
41632;BME280;37452;51.938;4.624;2023-02-14T12:10:40;77897.25;;;-142.75;78.83
41632;BME280;37452;51.938;4.624;2023-02-14T12:23:35;77810.63;;;-142.75;76.03
41632;BME280;37452;51.938;4.624;2023-02-14T12:26:25;77918.94;;;-142.75;76.24
41632;BME280;37452;51.938;4.624;2023-02-14T12:29:32;77948.47;;;-142.75;82.14
41632;BME280;37452;51.938;4.624;2023-02-14T12:32:06;77960.28;;;-142.75;83.17
41632;BME280;37452;51.938;4.624;2023-02-14T12:34:35;77905.13;;;-142.75;80.50
41632;BME280;37452;51.938;4.624;2023-02-14T12:37:09;77865.75;;;-142.75;78.55
41632;BME280;37452;51.938;4.624;2023-02-14T12:45:12;77755.50;;;-142.75;74.31
41632;BME280;37452;51.938;4.624;2023-02-14T12:53:33;77708.22;;;-142.75;72.82
41632;BME280;37452;51.938;4.624;2023-02-14T12:56:06;77698.38;;;-142.75;71.60
41632;BME280;37452;51.938;4.624;2023-02-14T13:01:19;77745.66;;;-142.75;74.39
41632;BME280;37452;51.938;4.624;2023-02-14T13:04:25;77755.50;;;-142.75;76.12
41632;BME280;37452;51.938;4.624;2023-02-14T13:06:58;77727.94;;;-142.75;74.84
41632;BME280;37452;51.938;4.624;2023-02-14T13:09:58;77775.19;;;-142.75;74.46
41632;BME280;37452;51.938;4.624;2023-02-14T13:12:33;77749.59;;;-142.75;75.03
41632;BME280;37452;51.938;4.624;2023-02-14T13:17:53;77749.59;;;-142.75;74.74
41632;BME280;37452;51.938;4.624;2023-02-14T13:22:56;77775.19;;;-142.75;74.59
41632;BME280;37452;51.938;4.624;2023-02-14T13:25:29;77788.97;;;-142.75;75.08
41632;BME280;37452;51.938;4.624;2023-02-14T13:28:03;77861.81;;;-142.75;75.28
41632;BME280;37452;51.938;4.624;2023-02-14T13:30:34;77899.22;;;-142.75;76.21
41632;BME280;37452;51.938;4.624;2023-02-14T13:33:23;77985.88;;;-142.75;80.05
41632;BME280;37452;51.938;4.624;2023-02-14T13:35:50;78019.34;;;-142.75;81.11
41632;BME280;37452;51.938;4.624;2023-02-14T13:38:18;78046.91;;;-142.75;83.16
41632;BME280;37452;51.938;4.624;2023-02-14T13:40:44;78090.25;;;-142.75;85.11
41632;BME280;37452;51.938;4.624;2023-02-14T13:43:11;78072.53;;;-142.75;85.87
41632;BME280;37452;51.938;4.624;2023-02-14T13:48:16;78127.66;;;-142.75;86.08
41632;BME280;37452;51.938;4.624;2023-02-14T13:55:59;78184.78;;;-142.75;91.00
41632;BME280;37452;51.938;4.624;2023-02-14T13:58:24;78222.19;;;-142.75;92.74
41632;BME280;37452;51.938;4.624;2023-02-14T14:00:51;78232.03;;;-142.75;91.63
41632;BME280;37452;51.938;4.624;2023-02-14T14:06:00;78297.00;;;-142.75;93.78
41632;BME280;37452;51.938;4.624;2023-02-14T14:18:49;78302.94;;;-142.75;98.65
41632;BME280;37452;51.938;4.624;2023-02-14T14:21:41;78318.69;;;-142.75;97.58
41632;BME280;37452;51.938;4.624;2023-02-14T14:24:23;78318.69;;;-142.75;97.81
41632;BME280;37452;51.938;4.624;2023-02-14T14:29:22;78318.69;;;-142.75;98.98
41632;BME280;37452;51.938;4.624;2023-02-14T14:31:49;78324.59;;;-142.75;100.00
41632;BME280;37452;51.938;4.624;2023-02-14T14:34:21;78308.84;;;-142.75;100.00
41632;BME280;37452;51.938;4.624;2023-02-14T14:36:49;78322.63;;;-142.75;98.72
41632;BME280;37452;51.938;4.624;2023-02-14T14:39:27;78338.38;;;-142.75;97.99
41632;BME280;37452;51.938;4.624;2023-02-14T14:41:53;78362.00;;;-142.75;97.86
41632;BME280;37452;51.938;4.624;2023-02-14T14:44:19;78338.38;;;-142.75;99.66
41632;BME280;37452;51.938;4.624;2023-02-14T14:46:44;78330.50;;;-142.75;100.00
41632;BME280;37452;51.938;4.624;2023-02-14T14:49:11;78314.75;;;-142.75;100.00
41632;BME280;37452;51.938;4.624;2023-02-14T14:51:37;78306.88;;;-142.75;100.00
41632;BME280;37452;51.938;4.624;2023-02-14T14:54:14;78306.88;;;-142.75;100.00
41632;BME280;37452;51.938;4.624;2023-02-14T14:56:53;78306.88;;;-142.75;100.00
41632;BME280;37452;51.938;4.624;2023-02-14T15:01:47;78285.19;;;-142.75;100.00
41632;BME280;37452;51.938;4.624;2023-02-14T15:04:23;78310.81;;;-142.75;100.00